createdAt,value
2019-05-09T00:04:13.749Z,10.57
2019-05-09T00:08:24.989Z,11.50
2019-05-09T00:12:36.581Z,14.97
2019-05-09T00:16:48.279Z,21.37
2019-05-09T00:21:07.031Z,12.27
2019-05-09T00:25:18.908Z,9.57
2019-05-09T00:29:38.891Z,9.37
2019-05-09T00:33:55.753Z,10.20
2019-05-09T00:38:09.084Z,11.23
2019-05-09T00:42:20.781Z,10.97
2019-05-09T00:46:49.234Z,16.63
2019-05-09T00:51:03.273Z,13.07
2019-05-09T00:55:14.534Z,11.73
2019-05-09T00:59:26.236Z,10.17
2019-05-09T01:03:37.918Z,11.73
2019-05-09T01:07:50.754Z,11.27
2019-05-09T01:12:04.171Z,14.30
2019-05-09T01:16:15.693Z,18.13
2019-05-09T01:20:27.485Z,16.20
2019-05-09T01:24:39.423Z,13.30
2019-05-09T01:28:53.558Z,13.93
2019-05-09T01:33:24.171Z,21.03
2019-05-09T01:37:36.004Z,21.40
2019-05-09T01:41:47.794Z,14.93
2019-05-09T01:45:59.589Z,22.03
2019-05-09T01:50:13.877Z,27.13
2019-05-09T01:54:26.602Z,29.70
2019-05-09T01:58:38.396Z,27.83
2019-05-09T02:02:50.109Z,33.03
2019-05-09T02:07:03.964Z,26.67
2019-05-09T02:11:15.418Z,22.83
2019-05-09T02:15:43.451Z,23.60
2019-05-09T02:19:55.003Z,21.83
2019-05-09T02:24:06.901Z,20.40
2019-05-09T02:28:19.593Z,16.00
2019-05-09T02:32:34.482Z,17.40
2019-05-09T02:36:44.963Z,13.53
2019-05-09T02:40:59.454Z,10.03
2019-05-09T02:45:10.731Z,13.93
2019-05-09T02:49:22.616Z,11.00
2019-05-09T02:53:34.421Z,13.73
2019-05-09T02:57:48.980Z,13.27
2019-05-09T03:02:28.673Z,11.57
2019-05-09T03:06:39.240Z,13.00
2019-05-09T03:10:51.002Z,15.83
2019-05-09T03:15:02.810Z,12.53
2019-05-09T03:19:14.638Z,11.10
2019-05-09T03:23:28.518Z,14.20
2019-05-09T03:27:41.652Z,15.27
2019-05-09T03:31:54.570Z,11.33
2019-05-09T03:36:07.796Z,7.70
2019-05-09T03:40:19.779Z,7.23
2019-05-09T03:44:31.569Z,10.80
2019-05-09T03:48:47.865Z,11.53
2019-05-09T03:52:59.580Z,6.17
2019-05-09T03:57:20.023Z,9.83
2019-05-09T04:01:31.885Z,10.30
2019-05-09T04:05:55.351Z,14.00
2019-05-09T04:09:58.497Z,12.27
2019-05-09T04:14:14.193Z,10.00
2019-05-09T04:18:27.713Z,11.00
2019-05-09T04:22:39.327Z,6.83
2019-05-09T04:27:14.620Z,11.80
2019-05-09T04:31:28.012Z,11.43
2019-05-09T04:35:40.133Z,11.10
2019-05-09T04:39:54.001Z,10.47
2019-05-09T04:44:16.471Z,12.60
2019-05-09T04:48:32.405Z,12.00
2019-05-09T04:52:43.996Z,15.17
2019-05-09T04:56:57.447Z,12.07
2019-05-09T05:01:28.217Z,10.40
2019-05-09T05:05:40.268Z,15.77
2019-05-09T05:09:52.077Z,10.07
2019-05-09T05:14:03.982Z,11.47
2019-05-09T05:18:17.377Z,15.53
2019-05-09T05:22:38.703Z,12.40
2019-05-09T05:26:50.558Z,12.40
2019-05-09T05:31:02.408Z,13.20
2019-05-09T05:35:33.136Z,12.53
2019-05-09T05:39:44.877Z,14.27
2019-05-09T05:43:58.040Z,11.13
2019-05-09T05:48:17.365Z,13.10
2019-05-09T05:52:28.478Z,12.53
2019-05-09T05:56:40.285Z,14.37
2019-05-09T06:00:52.184Z,10.10
2019-05-09T06:05:03.993Z,13.40
2019-05-09T06:09:15.865Z,8.40
2019-05-09T06:13:27.691Z,10.03
2019-05-09T06:17:39.529Z,8.07
2019-05-09T06:21:52.322Z,8.50
2019-05-09T06:26:04.531Z,13.37
2019-05-09T06:30:21.194Z,14.37
2019-05-09T06:34:32.904Z,12.60
2019-05-09T06:38:44.734Z,8.67
2019-05-09T06:42:59.003Z,10.80
2019-05-09T06:47:27.745Z,11.17
2019-05-09T06:51:39.601Z,9.40
2019-05-09T06:55:51.429Z,8.80
2019-05-09T07:00:04.263Z,12.43
2019-05-09T07:04:24.941Z,8.60
2019-05-09T07:08:58.320Z,10.33
2019-05-09T07:13:09.346Z,6.23
2019-05-09T07:17:21.712Z,9.47
2019-05-09T07:21:52.646Z,6.00
2019-05-09T07:26:17.735Z,11.20
2019-05-09T07:30:58.135Z,8.33
2019-05-09T07:35:10.342Z,10.93
2019-05-09T07:39:25.069Z,9.20
2019-05-09T07:43:38.983Z,10.03
2019-05-09T07:47:52.331Z,9.73
2019-05-09T07:52:09.406Z,10.20
2019-05-09T07:56:18.930Z,10.77
2019-05-09T08:00:38.211Z,9.00
2019-05-09T08:04:50.949Z,11.17
2019-05-09T08:09:02.738Z,8.23
2019-05-09T08:13:14.558Z,8.83
2019-05-09T08:17:28.572Z,7.90
2019-05-09T08:21:42.991Z,8.37
2019-05-09T08:25:57.878Z,10.63
2019-05-09T08:30:10.581Z,9.47
2019-05-09T08:34:22.614Z,12.67
2019-05-09T08:38:34.447Z,9.20
2019-05-09T08:42:48.146Z,5.23
2019-05-09T08:47:01.980Z,10.53
2019-05-09T08:51:23.593Z,12.83
2019-05-09T08:55:35.480Z,8.07
2019-05-09T08:59:50.518Z,8.07
2019-05-09T09:04:00.721Z,6.53
2019-05-09T09:08:12.537Z,8.70
2019-05-09T09:12:33.103Z,10.47
2019-05-09T09:16:41.506Z,9.10
2019-05-09T09:20:52.118Z,7.53
2019-05-09T09:25:03.927Z,8.10
2019-05-09T09:29:17.741Z,6.57
2019-05-09T09:33:29.028Z,9.13
2019-05-09T09:37:48.588Z,10.70
2019-05-09T09:41:54.349Z,5.37
2019-05-09T09:46:13.338Z,11.10
2019-05-09T09:50:19.645Z,7.97
2019-05-09T09:54:31.441Z,13.50
2019-05-09T09:58:44.854Z,9.07
2019-05-09T10:02:58.714Z,7.70
2019-05-09T10:07:09.939Z,9.50
2019-05-09T10:11:21.869Z,9.23
2019-05-09T10:15:42.944Z,8.83
2019-05-09T10:20:13.530Z,8.03
2019-05-09T10:24:25.281Z,5.70
2019-05-09T10:28:38.002Z,7.80
2019-05-09T10:32:50.058Z,6.53
2019-05-09T10:37:01.768Z,7.17
2019-05-09T10:41:13.497Z,8.00
2019-05-09T10:45:41.067Z,7.47
2019-05-09T10:49:52.880Z,9.10
2019-05-09T10:54:04.797Z,5.37
2019-05-09T10:58:19.648Z,12.90
2019-05-09T11:02:30.127Z,7.10
2019-05-09T11:06:43.959Z,8.57
2019-05-09T11:10:57.880Z,6.83
2019-05-09T11:15:09.573Z,6.77
2019-05-09T11:19:21.735Z,7.63
2019-05-09T11:23:33.538Z,6.00
2019-05-09T11:27:45.453Z,5.33
2019-05-09T11:31:58.684Z,5.87
2019-05-09T11:36:11.225Z,4.73
2019-05-09T11:40:23.409Z,6.23
2019-05-09T11:44:35.262Z,3.70
2019-05-09T11:48:47.841Z,3.43
2019-05-09T11:53:00.130Z,4.87
2019-05-09T11:57:11.924Z,3.67
2019-05-09T12:01:23.878Z,3.73
2019-05-09T12:05:37.885Z,3.90
2019-05-09T12:09:49.442Z,6.50
2019-05-09T12:14:02.464Z,7.80
2019-05-09T12:18:14.248Z,6.13
2019-05-09T12:22:27.947Z,4.97
2019-05-09T12:26:39.366Z,5.17
2019-05-09T12:30:52.032Z,5.70
2019-05-09T12:35:03.995Z,7.17
2019-05-09T12:39:18.559Z,6.03
2019-05-09T12:43:29.041Z,6.40
2019-05-09T12:47:41.939Z,5.23
2019-05-09T12:51:53.860Z,4.43
2019-05-09T12:56:07.960Z,8.37
2019-05-09T13:00:19.097Z,9.17
2019-05-09T13:04:30.908Z,4.93
2019-05-09T13:08:42.702Z,7.63
2019-05-09T13:12:54.386Z,6.27
2019-05-09T13:17:17.833Z,6.13
2019-05-09T13:21:32.598Z,6.47
2019-05-09T13:25:42.753Z,5.17
2019-05-09T13:29:54.817Z,5.33
2019-05-09T13:34:08.018Z,7.07
2019-05-09T13:38:20.149Z,5.20
2019-05-09T13:42:31.967Z,6.30
2019-05-09T13:46:43.764Z,5.10
2019-05-09T13:50:57.681Z,3.97
2019-05-09T13:55:08.908Z,9.87
2019-05-09T13:59:20.632Z,6.30
2019-05-09T14:03:32.785Z,6.20
2019-05-09T14:07:45.536Z,6.30
2019-05-09T14:11:59.008Z,6.57
2019-05-09T14:16:20.010Z,6.37
2019-05-09T14:20:24.061Z,6.03
2019-05-09T14:24:35.901Z,4.77
2019-05-09T14:28:49.040Z,4.73
2019-05-09T14:33:00.961Z,4.37
2019-05-09T14:37:12.782Z,6.47
2019-05-09T14:41:24.441Z,8.17
2019-05-09T14:45:38.077Z,4.87
2019-05-09T14:49:50.700Z,9.40
2019-05-09T14:54:02.772Z,6.13
2019-05-09T14:58:14.606Z,5.17
2019-05-09T15:02:26.412Z,6.70
2019-05-09T15:06:38.317Z,4.97
2019-05-09T15:10:50.113Z,3.50
2019-05-09T15:15:01.734Z,4.13
2019-05-09T15:19:14.560Z,6.90
2019-05-09T15:23:29.238Z,6.97
2019-05-09T15:27:44.111Z,4.53
2019-05-09T15:32:03.333Z,5.23
2019-05-09T15:36:10.809Z,4.10
2019-05-09T15:40:24.196Z,3.40
2019-05-09T15:44:38.052Z,5.73
2019-05-09T15:48:51.889Z,3.17
2019-05-09T15:53:08.288Z,4.67
2019-05-09T15:57:21.146Z,2.73
2019-05-09T16:01:35.037Z,2.30
2019-05-09T16:05:48.975Z,5.13
2019-05-09T16:10:02.735Z,4.97
2019-05-09T16:14:18.488Z,3.43
2019-05-09T16:18:31.657Z,5.27
2019-05-09T16:22:48.115Z,4.13
2019-05-09T16:27:00.607Z,3.30
2019-05-09T16:31:14.784Z,4.07
2019-05-09T16:35:28.800Z,5.60
2019-05-09T16:39:42.819Z,3.77
2019-05-09T16:43:58.337Z,6.97
2019-05-09T16:48:12.126Z,4.73
2019-05-09T16:52:26.090Z,4.30
2019-05-09T16:56:40.004Z,5.30
2019-05-09T17:00:54.363Z,5.00
2019-05-09T17:05:08.601Z,6.27
2019-05-09T17:09:22.457Z,6.17
2019-05-09T17:13:36.231Z,3.93
2019-05-09T17:17:51.527Z,4.80
2019-05-09T17:22:42.804Z,5.83
2019-05-09T17:26:58.025Z,5.87
2019-05-09T17:31:11.845Z,2.83
2019-05-09T17:35:27.763Z,4.37
2019-05-09T17:39:42.062Z,3.67
2019-05-09T17:43:58.065Z,6.10
2019-05-09T17:48:10.944Z,4.17
2019-05-09T17:52:24.659Z,4.17
2019-05-09T17:56:39.682Z,4.03
2019-05-09T18:00:53.366Z,4.53
2019-05-09T18:05:07.897Z,6.13
2019-05-09T18:09:21.871Z,6.17
2019-05-09T18:13:35.619Z,4.57
2019-05-09T18:17:51.287Z,4.10
2019-05-09T18:22:08.235Z,3.57
2019-05-09T18:26:22.160Z,6.60
2019-05-09T18:30:38.666Z,6.73
2019-05-09T18:34:58.526Z,6.07
2019-05-09T18:39:12.211Z,5.63
2019-05-09T18:43:27.495Z,7.23
2019-05-09T18:47:41.320Z,9.00
2019-05-09T18:52:03.180Z,6.57
2019-05-09T18:56:12.087Z,9.83
2019-05-09T19:00:26.428Z,5.57
2019-05-09T19:04:42.483Z,6.93
2019-05-09T19:08:58.343Z,7.30
2019-05-09T19:13:23.152Z,7.60
2019-05-09T19:18:14.989Z,5.97
2019-05-09T19:22:44.776Z,8.43
2019-05-09T19:27:02.908Z,8.07
2019-05-09T19:31:17.434Z,6.47
2019-05-09T19:35:35.097Z,7.93
2019-05-09T19:39:54.335Z,4.33
2019-05-09T19:44:14.089Z,8.80
2019-05-09T19:48:42.023Z,10.00
2019-05-09T19:52:56.580Z,7.43
2019-05-09T19:57:32.518Z,7.00
2019-05-09T20:01:53.220Z,8.40
2019-05-09T20:06:09.384Z,6.33
2019-05-09T20:10:41.098Z,11.07
2019-05-09T20:14:55.658Z,9.87
2019-05-09T20:19:11.959Z,7.87
2019-05-09T20:23:28.940Z,10.10
2019-05-09T20:27:43.639Z,6.07
2019-05-09T20:31:59.964Z,7.73
2019-05-09T20:36:16.393Z,6.47
2019-05-09T20:40:32.370Z,7.60
2019-05-09T20:44:46.381Z,6.20
2019-05-09T20:49:03.720Z,7.90
2019-05-09T20:53:18.042Z,7.20
2019-05-09T20:57:32.026Z,7.57
2019-05-09T21:01:45.922Z,6.13
2019-05-09T21:06:00.151Z,6.90
2019-05-09T21:10:15.009Z,8.30
2019-05-09T21:14:30.147Z,11.87
2019-05-09T21:18:44.203Z,10.07
2019-05-09T21:22:58.211Z,8.60
2019-05-09T21:27:12.076Z,6.37
2019-05-09T21:31:25.944Z,7.20
2019-05-09T21:35:40.077Z,7.43
2019-05-09T21:39:54.017Z,7.53
2019-05-09T21:44:07.587Z,7.00
2019-05-09T21:48:20.584Z,7.47
2019-05-09T21:52:32.483Z,7.90
2019-05-09T21:56:44.090Z,6.53
2019-05-09T22:00:58.306Z,6.43
2019-05-09T22:05:10.193Z,5.93
2019-05-09T22:09:22.052Z,5.07
2019-05-09T22:13:33.758Z,5.67
2019-05-09T22:17:47.360Z,6.90
2019-05-09T22:21:59.081Z,8.10
2019-05-09T22:26:10.977Z,6.60
2019-05-09T22:30:23.189Z,5.63
2019-05-09T22:34:34.981Z,7.97
2019-05-09T22:38:47.973Z,5.70
2019-05-09T22:42:59.628Z,7.10
2019-05-09T22:47:11.311Z,6.93
2019-05-09T22:51:23.122Z,7.07
2019-05-09T22:55:34.909Z,5.57
2019-05-09T22:59:46.746Z,8.60
2019-05-09T23:03:58.517Z,8.77
2019-05-09T23:08:10.589Z,6.30
2019-05-09T23:12:22.224Z,6.50
2019-05-09T23:16:36.445Z,6.60
2019-05-09T23:20:54.293Z,6.47
2019-05-09T23:25:06.489Z,9.47
2019-05-09T23:29:18.356Z,9.83
2019-05-09T23:33:32.644Z,9.50
2019-05-09T23:37:44.689Z,7.07
2019-05-09T23:41:56.578Z,7.87
2019-05-09T23:46:08.504Z,9.37
2019-05-09T23:50:20.317Z,10.13
2019-05-09T23:54:49.266Z,7.37
2019-05-09T23:59:18.573Z,8.27
